Time;durP1;ratioP1;P1;durP2;ratioP2;P2;SDS_P1;SDS_P2;PMS_P1;PMS_P2;Temp;Humidity;BMP_temperature;BMP_pressure;BME280_temperature;BME280_humidity;BME280_pressure;Samples;Min_cycle;Max_cycle;Signal;HPM_P1;HPM_P2
2022/05/08 00:00:32;;;;;;;8.00;5.00;;;14.60;99.90;;;;;;5032101;28;20206;-67
2022/05/08 00:02:58;;;;;;;17.10;5.25;;;14.50;99.90;;;;;;5032558;28;20268;-67
2022/05/08 00:05:27;;;;;;;12.05;5.45;;;14.50;99.90;;;;;;5033133;28;20250;-67
2022/05/08 00:07:53;;;;;;;17.15;5.88;;;14.50;99.90;;;;;;5032909;28;20209;-67
2022/05/08 00:10:19;;;;;;;11.38;5.55;;;14.40;99.90;;;;;;5032084;28;20243;-67
2022/05/08 00:12:45;;;;;;;10.43;5.47;;;14.40;99.90;;;;;;5032772;28;20209;-67
2022/05/08 00:15:11;;;;;;;15.40;5.93;;;14.40;99.90;;;;;;5031984;28;20205;-64
2022/05/08 00:17:37;;;;;;;12.48;6.15;;;14.30;99.90;;;;;;5032535;28;20162;-67
2022/05/08 00:20:05;;;;;;;10.82;5.45;;;14.30;99.90;;;;;;5032764;28;20244;-67
2022/05/08 00:22:31;;;;;;;12.10;6.63;;;14.30;99.90;;;;;;5031463;28;20212;-67
2022/05/08 00:24:56;;;;;;;10.48;5.75;;;14.30;99.90;;;;;;5014179;28;20637;-67
2022/05/08 00:27:22;;;;;;;9.13;6.07;;;14.20;99.90;;;;;;5032140;28;20724;-67
2022/05/08 00:29:48;;;;;;;9.80;5.72;;;14.10;99.90;;;;;;5032199;28;20209;-67
2022/05/08 00:32:13;;;;;;;15.35;6.15;;;14.20;99.90;;;;;;5031217;28;20170;-68
2022/05/08 00:34:39;;;;;;;12.40;6.13;;;14.10;99.90;;;;;;5032757;28;20166;-68
2022/05/08 00:37:05;;;;;;;8.75;5.85;;;14.10;99.90;;;;;;5032390;28;20209;-68
2022/05/08 00:39:32;;;;;;;11.25;6.18;;;14.10;99.90;;;;;;5031959;28;20178;-66
2022/05/08 00:42:01;;;;;;;12.88;6.43;;;14.00;99.90;;;;;;5025917;28;20899;-66
2022/05/08 00:44:27;;;;;;;15.68;6.43;;;13.90;99.90;;;;;;5032399;28;20193;-67
2022/05/08 00:46:53;;;;;;;11.00;5.90;;;13.90;99.90;;;;;;5021030;28;20646;-67
2022/05/08 00:49:19;;;;;;;13.45;6.38;;;13.90;99.90;;;;;;5050757;28;20261;-67
2022/05/08 00:51:48;;;;;;;13.93;6.13;;;13.80;99.90;;;;;;5041069;28;20177;-67
2022/05/08 00:54:15;;;;;;;13.63;7.30;;;13.80;99.90;;;;;;5051636;28;20169;-67
2022/05/08 00:56:42;;;;;;;12.85;6.60;;;13.80;99.90;;;;;;5052219;28;20212;-68
2022/05/08 00:59:08;;;;;;;12.40;6.53;;;13.80;99.90;;;;;;5039208;28;20178;-69
2022/05/08 01:01:34;;;;;;;12.63;6.70;;;13.80;99.90;;;;;;5032254;28;20177;-68
2022/05/08 01:03:59;;;;;;;13.77;7.05;;;13.70;99.90;;;;;;5042297;28;20261;-68
2022/05/08 01:06:27;;;;;;;13.75;7.40;;;13.70;99.90;;;;;;5051624;28;20217;-67
2022/05/08 01:08:53;;;;;;;13.88;7.18;;;13.70;99.90;;;;;;5051207;28;20169;-69
2022/05/08 01:11:19;;;;;;;10.70;7.20;;;13.60;99.90;;;;;;5037362;28;20645;-69
2022/05/08 01:13:45;;;;;;;16.58;7.85;;;13.50;99.90;;;;;;5031914;28;20682;-71
2022/05/08 01:16:13;;;;;;;14.88;7.78;;;13.50;99.90;;;;;;5030787;28;20735;-69
2022/05/08 01:18:39;;;;;;;14.77;7.57;;;13.40;99.90;;;;;;5031468;28;20180;-69
2022/05/08 01:21:09;;;;;;;15.05;7.95;;;13.40;99.90;;;;;;5031613;28;20166;-69
2022/05/08 01:23:36;;;;;;;12.88;8.18;;;13.40;99.90;;;;;;5030990;28;20628;-70
2022/05/08 01:26:02;;;;;;;15.35;8.40;;;13.40;99.90;;;;;;5031838;28;20173;-69
2022/05/08 01:28:29;;;;;;;18.75;9.07;;;13.30;99.90;;;;;;5030371;28;20274;-69
2022/05/08 01:30:55;;;;;;;15.38;8.25;;;13.30;99.90;;;;;;5030943;28;20162;-69
2022/05/08 01:33:22;;;;;;;16.23;8.23;;;13.20;99.90;;;;;;5031357;28;20181;-70
2022/05/08 01:35:52;;;;;;;18.02;8.25;;;13.20;99.90;;;;;;5031470;28;20205;-69
2022/05/08 01:38:20;;;;;;;16.63;8.85;;;13.20;99.90;;;;;;5030837;28;20214;-69
2022/05/08 01:40:46;;;;;;;13.90;8.52;;;13.10;99.90;;;;;;5031539;28;20206;-69
2022/05/08 01:43:13;;;;;;;13.82;8.82;;;13.10;99.90;;;;;;5031452;28;20182;-69
2022/05/08 01:45:39;;;;;;;20.92;9.32;;;13.10;99.90;;;;;;5030542;28;20170;-68
2022/05/08 01:48:21;;;;;;;19.40;8.82;;;13.00;99.90;;;;;;5030134;28;20193;-68
2022/05/08 01:50:50;;;;;;;14.95;8.95;;;13.00;99.90;;;;;;5029733;28;20714;-69
2022/05/08 01:53:17;;;;;;;14.07;8.88;;;12.90;99.90;;;;;;5011841;28;20174;-68
2022/05/08 01:55:42;;;;;;;17.95;9.90;;;12.90;99.90;;;;;;5029975;28;20242;-69
2022/05/08 01:58:08;;;;;;;17.95;10.23;;;12.90;99.90;;;;;;5012583;28;20205;-67
2022/05/08 02:00:34;;;;;;;17.40;9.63;;;12.80;99.90;;;;;;5029832;28;20644;-67
2022/05/08 02:03:02;;;;;;;17.27;10.23;;;12.80;99.90;;;;;;5012205;28;20193;-70
2022/05/08 02:05:28;;;;;;;21.50;10.77;;;12.80;99.90;;;;;;5029624;28;20169;-68
2022/05/08 02:07:55;;;;;;;18.42;9.88;;;12.80;99.90;;;;;;5029153;28;20177;-68
2022/05/08 02:10:21;;;;;;;18.55;10.00;;;12.70;99.90;;;;;;5029579;28;20174;-68
2022/05/08 02:12:47;;;;;;;16.20;10.57;;;12.70;99.90;;;;;;5030218;28;20177;-68
2022/05/08 02:15:14;;;;;;;18.42;10.57;;;12.70;99.90;;;;;;5030199;28;20239;-68
2022/05/08 02:17:41;;;;;;;17.50;10.13;;;12.70;99.90;;;;;;5029491;28;20216;-68
2022/05/08 02:20:08;;;;;;;21.10;10.55;;;12.60;99.90;;;;;;5029742;28;20273;-68
2022/05/08 02:22:34;;;;;;;20.97;10.50;;;12.60;99.90;;;;;;5030434;28;20209;-68
2022/05/08 02:25:00;;;;;;;18.27;10.27;;;12.60;99.90;;;;;;5030046;28;20170;-68
2022/05/08 02:27:26;;;;;;;20.10;10.35;;;12.60;99.90;;;;;;5029830;28;20414;-68
2022/05/08 02:29:52;;;;;;;19.65;10.75;;;12.60;99.90;;;;;;5030116;28;20631;-68
2022/05/08 02:32:18;;;;;;;17.30;10.35;;;12.50;99.90;;;;;;5030050;28;20239;-68
2022/05/08 02:34:44;;;;;;;17.80;10.57;;;12.50;99.90;;;;;;5030663;28;20181;-68
2022/05/08 02:37:10;;;;;;;15.97;11.10;;;12.50;99.90;;;;;;5029324;28;20205;-68
2022/05/08 02:39:36;;;;;;;19.93;11.10;;;12.50;99.90;;;;;;5029128;28;20178;-68
2022/05/08 02:42:02;;;;;;;18.13;10.57;;;12.50;99.90;;;;;;5029539;28;20742;-67
2022/05/08 02:44:28;;;;;;;19.25;10.63;;;13.10;99.90;;;;;;5029151;28;20182;-68
2022/05/08 02:46:53;;;;;;;21.15;11.52;;;12.50;99.90;;;;;;5029798;28;20170;-68
2022/05/08 02:49:19;;;;;;;26.80;12.83;;;12.40;99.90;;;;;;5032479;28;20170;-68
2022/05/08 02:51:45;;;;;;;20.40;11.90;;;12.40;99.90;;;;;;5034546;28;20295;-71
2022/05/08 02:54:10;;;;;;;26.00;12.87;;;12.40;99.90;;;;;;5034344;28;20621;-71
2022/05/08 02:59:20;;;;;;;22.05;12.45;;;12.40;99.90;;;;;;5034586;28;20184;-70
2022/05/08 03:01:46;;;;;;;22.77;12.73;;;12.40;99.90;;;;;;5033877;28;20268;-71
2022/05/08 03:04:12;;;;;;;22.45;12.93;;;12.30;99.90;;;;;;5034015;28;20224;-71
2022/05/08 03:06:38;;;;;;;23.77;13.93;;;12.30;99.90;;;;;;5034340;28;20173;-69
2022/05/08 03:09:04;;;;;;;29.77;13.93;;;12.30;99.90;;;;;;5028467;28;20295;-71
2022/05/08 03:11:30;;;;;;;22.13;13.20;;;12.30;99.90;;;;;;5035168;28;20573;-71
2022/05/08 03:13:59;;;;;;;24.38;14.65;;;12.40;99.90;;;;;;5053902;28;20195;-66
2022/05/08 03:16:28;;;;;;;22.05;13.82;;;12.40;99.90;;;;;;5043039;28;20213;-71
2022/05/08 03:18:55;;;;;;;19.83;12.97;;;12.40;99.90;;;;;;5033336;28;20178;-71
2022/05/08 03:21:22;;;;;;;23.02;13.30;;;12.40;99.90;;;;;;5033326;28;20257;-70
2022/05/08 03:23:48;;;;;;;21.10;12.93;;;12.40;99.90;;;;;;5032274;28;20170;-69
2022/05/08 03:26:14;;;;;;;24.25;13.25;;;12.40;99.90;;;;;;5031764;28;20186;-70
2022/05/08 03:28:41;;;;;;;17.10;12.30;;;12.40;99.90;;;;;;5032780;28;20170;-71
2022/05/08 03:31:08;;;;;;;21.27;13.90;;;12.50;99.90;;;;;;5032772;28;20644;-71
2022/05/08 03:33:35;;;;;;;24.88;14.10;;;12.50;99.90;;;;;;5033182;28;20181;-71
2022/05/08 03:36:01;;;;;;;23.50;13.82;;;12.50;99.90;;;;;;5032762;28;20562;-71
2022/05/08 03:38:27;;;;;;;20.83;13.32;;;12.50;99.90;;;;;;5034100;28;20504;-71
2022/05/08 03:40:54;;;;;;;21.58;13.23;;;12.70;99.90;;;;;;5032045;28;20244;-71
2022/05/08 03:43:21;;;;;;;18.38;13.27;;;13.20;99.90;;;;;;5032569;28;20174;-70
2022/05/08 03:45:50;;;;;;;23.10;13.30;;;12.70;99.90;;;;;;5033293;28;20244;-69
2022/05/08 03:48:17;;;;;;;23.60;14.27;;;12.80;99.90;;;;;;5031741;28;20170;-69
2022/05/08 03:50:43;;;;;;;21.73;14.25;;;12.80;99.90;;;;;;5031689;28;20182;-69
2022/05/08 03:53:09;;;;;;;24.73;14.35;;;12.80;99.90;;;;;;5031817;28;20324;-69
2022/05/08 03:55:35;;;;;;;23.15;14.73;;;12.80;99.90;;;;;;5032862;28;20177;-69
2022/05/08 03:58:01;;;;;;;20.27;14.43;;;12.80;99.90;;;;;;5033011;28;20657;-69
2022/05/08 04:00:27;;;;;;;24.05;14.45;;;12.70;99.90;;;;;;5032729;28;20181;-68
2022/05/08 04:02:54;;;;;;;22.25;14.20;;;12.80;99.90;;;;;;5014650;28;20261;-69
2022/05/08 04:05:20;;;;;;;23.70;14.50;;;12.70;99.90;;;;;;5031980;28;20162;-69
2022/05/08 04:07:46;;;;;;;25.07;15.00;;;12.70;99.90;;;;;;5015664;28;20169;-70
2022/05/08 04:10:15;;;;;;;22.27;14.32;;;12.60;99.90;;;;;;5032698;28;20169;-71
2022/05/08 04:12:44;;;;;;;21.17;12.95;;;12.50;99.90;;;;;;5033246;28;20199;-70
2022/05/08 04:17:55;;;;;;;19.63;13.07;;;12.60;99.90;;;;;;5033296;28;20193;-67
2022/05/08 04:20:21;;;;;;;19.40;13.05;;;12.60;99.90;;;;;;5031879;28;20182;-69
2022/05/08 04:25:31;;;;;;;18.63;12.82;;;12.60;99.90;;;;;;5032161;28;20263;-70
2022/05/08 04:27:56;;;;;;;18.63;13.20;;;12.70;99.90;;;;;;5031704;28;20649;-70
2022/05/08 04:30:22;;;;;;;20.70;13.13;;;12.70;99.90;;;;;;5032908;28;20186;-69
2022/05/08 04:32:48;;;;;;;20.60;12.93;;;12.70;99.90;;;;;;5032558;28;20225;-70
2022/05/08 04:35:13;;;;;;;21.45;14.38;;;12.70;99.90;;;;;;5032351;28;20200;-70
2022/05/08 04:37:39;;;;;;;19.77;12.90;;;12.70;99.90;;;;;;5037865;28;20216;-71
2022/05/08 04:42:40;;;;;;;19.88;14.63;;;12.70;99.90;;;;;;3968269;22;20248;-70
2022/05/08 04:45:07;;;;;;;21.40;13.73;;;12.60;99.90;;;;;;5032566;28;20236;-70
2022/05/08 04:47:33;;;;;;;22.07;15.30;;;12.60;99.90;;;;;;5027336;28;20205;-69
2022/05/08 04:49:58;;;;;;;22.40;14.90;;;12.70;99.90;;;;;;5031545;28;20205;-69
2022/05/08 04:52:24;;;;;;;22.58;16.38;;;12.70;99.90;;;;;;5031883;28;20174;-69
2022/05/08 04:54:50;;;;;;;27.27;16.13;;;12.70;99.90;;;;;;5032064;28;20178;-69
2022/05/08 04:57:15;;;;;;;23.75;15.60;;;12.60;99.90;;;;;;5032394;28;20613;-69
2022/05/08 04:59:41;;;;;;;22.37;16.13;;;12.70;99.90;;;;;;5032326;28;20269;-70
2022/05/08 05:02:08;;;;;;;20.67;15.33;;;12.60;99.90;;;;;;5031079;28;20204;-70
2022/05/08 05:04:35;;;;;;;25.30;16.50;;;12.70;99.90;;;;;;5032150;28;20223;-69
2022/05/08 05:07:01;;;;;;;24.70;16.20;;;12.60;99.90;;;;;;5032446;28;20170;-68
2022/05/08 05:09:27;;;;;;;25.43;16.60;;;12.60;99.90;;;;;;5031479;28;20640;-68
2022/05/08 05:11:53;;;;;;;24.67;15.98;;;12.60;99.90;;;;;;5028801;28;20232;-69
2022/05/08 05:14:18;;;;;;;23.83;16.33;;;12.50;99.90;;;;;;5011634;28;20687;-69
2022/05/08 05:16:44;;;;;;;23.17;15.57;;;12.50;99.90;;;;;;5010988;28;20276;-69
2022/05/08 05:19:10;;;;;;;22.03;16.03;;;12.60;99.90;;;;;;5026417;28;20185;-69
2022/05/08 05:21:36;;;;;;;22.43;15.97;;;12.60;99.90;;;;;;5031109;28;20217;-70
2022/05/08 05:24:01;;;;;;;25.37;16.27;;;12.70;99.90;;;;;;5030888;28;20197;-69
2022/05/08 05:26:27;;;;;;;23.10;15.05;;;12.50;99.90;;;;;;5030880;28;20569;-69
2022/05/08 05:28:53;;;;;;;22.40;15.87;;;12.50;99.90;;;;;;5028726;28;20305;-69
2022/05/08 05:31:18;;;;;;;22.20;14.83;;;12.50;99.90;;;;;;5031501;28;20207;-68
2022/05/08 05:33:46;;;;;;;22.20;15.63;;;12.60;99.90;;;;;;5029552;28;20282;-69
2022/05/08 05:36:12;;;;;;;22.93;14.90;;;12.60;99.90;;;;;;5028704;28;20210;-69
2022/05/08 05:38:38;;;;;;;25.30;15.13;;;12.60;99.90;;;;;;5011720;28;20174;-70
2022/05/08 05:41:04;;;;;;;25.67;15.98;;;12.70;99.90;;;;;;5012048;28;20198;-71
2022/05/08 05:43:30;;;;;;;21.13;14.38;;;12.70;99.90;;;;;;5008471;28;20214;-72
2022/05/08 05:48:40;;;;;;;23.63;14.98;;;12.80;99.90;;;;;;5030536;28;20694;-72
2022/05/08 05:51:06;;;;;;;19.80;13.30;;;12.90;99.90;;;;;;5029548;28;20177;-72
2022/05/08 05:53:32;;;;;;;20.90;14.15;;;13.10;99.90;;;;;;5031247;28;20205;-71
2022/05/08 05:55:58;;;;;;;20.90;14.40;;;13.10;99.90;;;;;;5030563;28;20209;-71
2022/05/08 05:58:24;;;;;;;25.30;15.18;;;13.10;99.90;;;;;;5030494;28;20193;-71
2022/05/08 06:00:49;;;;;;;20.13;14.65;;;13.20;99.90;;;;;;5025832;28;20237;-72
2022/05/08 06:03:15;;;;;;;23.23;14.07;;;13.00;99.90;;;;;;5010802;28;20240;-71
2022/05/08 06:05:41;;;;;;;24.70;14.30;;;12.90;99.90;;;;;;5010594;28;20206;-72
2022/05/08 06:08:07;;;;;;;22.75;14.75;;;12.90;99.90;;;;;;5010163;28;20781;-72
2022/05/08 06:10:33;;;;;;;21.92;14.45;;;13.00;99.90;;;;;;5027322;28;20169;-71
2022/05/08 06:12:59;;;;;;;23.25;14.52;;;13.00;99.90;;;;;;5030851;28;20166;-71
2022/05/08 06:15:24;;;;;;;27.65;15.10;;;13.10;99.90;;;;;;5011522;28;20645;-71
2022/05/08 06:17:50;;;;;;;22.88;14.02;;;13.00;99.90;;;;;;5010444;28;20189;-72
2022/05/08 06:20:16;;;;;;;24.45;16.23;;;13.10;99.90;;;;;;5011581;28;20187;-70
2022/05/08 06:22:42;;;;;;;26.40;16.17;;;13.00;99.90;;;;;;5010935;28;20166;-68
2022/05/08 06:25:08;;;;;;;23.35;15.05;;;13.20;99.90;;;;;;5010126;28;20660;-78
2022/05/08 06:27:34;;;;;;;21.05;15.25;;;13.50;99.90;;;;;;5011426;28;20227;-78
2022/05/08 06:30:00;;;;;;;23.95;15.90;;;13.60;99.90;;;;;;5019165;28;20683;-73
2022/05/08 06:32:26;;;;;;;23.83;15.23;;;13.60;99.90;;;;;;5027688;28;20533;-74
2022/05/08 06:34:52;;;;;;;24.70;14.68;;;13.70;99.90;;;;;;5030249;28;20174;-73
2022/05/08 06:37:18;;;;;;;20.85;15.32;;;13.80;99.90;;;;;;5030881;28;20367;-73
2022/05/08 06:39:43;;;;;;;21.48;14.60;;;13.80;99.90;;;;;;5030478;28;20239;-73
2022/05/08 06:42:09;;;;;;;21.40;14.45;;;13.90;99.90;;;;;;5029857;28;20244;-65
2022/05/08 06:44:35;;;;;;;20.88;14.25;;;13.90;99.90;;;;;;5028864;28;20592;-63
2022/05/08 06:47:01;;;;;;;21.75;13.90;;;14.00;99.90;;;;;;5030190;28;20209;-64
2022/05/08 06:49:26;;;;;;;18.17;13.45;;;14.20;99.90;;;;;;5030155;28;20166;-63
2022/05/08 06:51:52;;;;;;;21.70;14.05;;;14.10;99.90;;;;;;5028591;28;20178;-64
2022/05/08 06:54:19;;;;;;;20.52;14.35;;;14.20;99.90;;;;;;5029004;28;20537;-65
2022/05/08 06:56:45;;;;;;;21.25;14.57;;;14.20;99.90;;;;;;5028999;28;20381;-64
2022/05/08 07:01:55;;;;;;;18.33;14.70;;;13.80;99.90;;;;;;5009627;28;20715;-63
2022/05/08 07:04:21;;;;;;;20.58;14.77;;;14.00;99.90;;;;;;5010531;28;20182;-63
2022/05/08 07:06:47;;;;;;;21.58;15.27;;;14.30;99.90;;;;;;5021814;28;20202;-64
2022/05/08 07:09:13;;;;;;;23.10;15.50;;;14.00;99.90;;;;;;5030225;28;20703;-64
2022/05/08 07:11:41;;;;;;;24.55;14.68;;;13.70;99.90;;;;;;5030349;28;20180;-64
2022/05/08 07:14:07;;;;;;;21.77;15.07;;;13.60;99.90;;;;;;5028582;28;20174;-67
2022/05/08 07:16:32;;;;;;;25.60;15.68;;;13.80;99.90;;;;;;5029069;28;20608;-69
2022/05/08 07:18:59;;;;;;;21.63;14.68;;;14.00;99.90;;;;;;5029018;28;20671;-59
2022/05/08 07:21:24;;;;;;;21.10;14.60;;;14.10;99.90;;;;;;5025782;28;20175;-59
2022/05/08 07:23:50;;;;;;;22.08;14.45;;;14.20;99.90;;;;;;5009892;28;20185;-60
2022/05/08 07:26:16;;;;;;;23.63;14.27;;;14.20;99.90;;;;;;5010346;28;20257;-60
2022/05/08 07:28:43;;;;;;;22.55;15.13;;;14.30;99.90;;;;;;5010527;28;20229;-60
2022/05/08 07:31:09;;;;;;;19.67;13.90;;;14.20;99.90;;;;;;5010665;28;20345;-60
2022/05/08 07:33:38;;;;;;;21.40;13.77;;;14.50;99.90;;;;;;5010035;28;20163;-60
2022/05/08 07:36:14;;;;;;;22.40;13.65;;;14.80;99.90;;;;;;5012408;28;20206;-61
2022/05/08 07:38:45;;;;;;;18.55;12.43;;;14.90;99.90;;;;;;5031975;28;20185;-57
2022/05/08 07:41:11;;;;;;;18.65;13.35;;;15.10;99.90;;;;;;5033769;28;20640;-60
2022/05/08 07:43:38;;;;;;;17.83;12.75;;;15.10;99.90;;;;;;5033562;28;20316;-59
2022/05/08 07:46:05;;;;;;;17.17;11.45;;;15.30;99.90;;;;;;5032884;28;20185;-58
2022/05/08 07:48:32;;;;;;;20.27;12.57;;;15.40;99.90;;;;;;5033226;28;20182;-59
2022/05/08 07:50:59;;;;;;;20.42;12.73;;;15.00;99.90;;;;;;5031865;28;20284;-59
2022/05/08 07:53:30;;;;;;;19.98;11.77;;;14.90;99.90;;;;;;5031848;28;20178;-58
2022/05/08 07:55:57;;;;;;;17.83;12.23;;;15.10;99.90;;;;;;5032468;28;20182;-59
2022/05/08 07:58:24;;;;;;;21.50;12.15;;;15.00;99.90;;;;;;5027916;28;20243;-58
2022/05/08 08:00:53;;;;;;;15.90;10.88;;;15.40;99.90;;;;;;5031526;28;20292;-58
2022/05/08 08:03:21;;;;;;;13.82;9.38;;;15.50;99.90;;;;;;5032907;28;20178;-63
2022/05/08 08:05:48;;;;;;;15.40;9.60;;;15.20;99.90;;;;;;5030366;28;20174;-59
2022/05/08 08:08:16;;;;;;;13.23;9.65;;;15.30;99.90;;;;;;5021426;28;20205;-59
2022/05/08 08:10:42;;;;;;;12.95;9.55;;;15.30;99.90;;;;;;5035996;28;20193;-59
2022/05/08 08:13:07;;;;;;;14.40;9.52;;;15.60;99.90;;;;;;5032764;28;20173;-59
2022/05/08 08:15:34;;;;;;;14.25;8.82;;;15.20;99.90;;;;;;5030228;28;20193;-61
2022/05/08 08:18:00;;;;;;;12.38;8.48;;;15.10;99.90;;;;;;5041186;28;20185;-71
2022/05/08 08:20:26;;;;;;;14.88;9.23;;;15.40;99.90;;;;;;5051644;28;20537;-66
2022/05/08 08:22:53;;;;;;;14.48;9.30;;;15.70;99.90;;;;;;5052347;28;20181;-67
2022/05/08 08:25:20;;;;;;;16.95;10.32;;;15.80;99.90;;;;;;5052715;28;20674;-57
2022/05/08 08:27:46;;;;;;;18.48;10.07;;;15.80;99.90;;;;;;5052372;28;20177;-57
2022/05/08 08:30:13;;;;;;;12.75;8.73;;;15.70;99.90;;;;;;5052837;28;20165;-57
2022/05/08 08:32:39;;;;;;;15.38;8.65;;;15.70;99.90;;;;;;5051786;28;20166;-56
2022/05/08 08:35:05;;;;;;;14.50;9.00;;;16.10;99.90;;;;;;5037440;28;20251;-56
2022/05/08 08:37:31;;;;;;;12.68;7.90;;;16.90;99.90;;;;;;5032594;28;20717;-58
2022/05/08 08:39:57;;;;;;;11.80;8.05;;;18.10;99.90;;;;;;5031031;28;20170;-57
2022/05/08 08:42:28;;;;;;;14.13;7.68;;;19.20;99.90;;;;;;5030640;28;20181;-58
2022/05/08 08:47:55;;;;;;;11.20;8.57;;;20.60;99.90;;;;;;5015008;28;20664;-57
2022/05/08 08:50:26;;;;;;;10.18;7.93;;;19.70;99.90;;;;;;5017925;28;20182;-57
2022/05/08 08:53:12;;;;;;;11.93;8.35;;;19.90;99.90;;;;;;5031006;28;20178;-57
2022/05/08 08:55:39;;;;;;;11.57;8.52;;;19.00;99.90;;;;;;5031323;28;20190;-57
2022/05/08 08:58:04;;;;;;;12.10;8.10;;;19.10;99.90;;;;;;5002241;28;20209;-56
2022/05/08 09:00:30;;;;;;;15.63;8.52;;;18.30;99.90;;;;;;5012306;28;20644;-56
2022/05/08 09:02:56;;;;;;;11.80;7.65;;;18.60;99.90;;;;;;5012072;28;20178;-56
2022/05/08 09:05:24;;;;;;;9.63;7.35;;;18.30;99.90;;;;;;5011369;28;20174;-55
2022/05/08 09:07:55;;;;;;;13.82;7.90;;;18.50;99.90;;;;;;5012453;28;20182;-55
2022/05/08 09:10:23;;;;;;;10.43;7.47;;;19.00;99.90;;;;;;5012318;28;20644;-57
2022/05/08 09:12:51;;;;;;;13.07;7.78;;;19.40;99.90;;;;;;5012601;28;20217;-55
2022/05/08 09:15:17;;;;;;;10.55;7.20;;;18.70;99.90;;;;;;5012403;28;20221;-57
2022/05/08 09:17:44;;;;;;;12.63;7.80;;;19.10;99.90;;;;;;5012396;28;20222;-57
2022/05/08 09:20:30;;;;;;;11.48;7.18;;;19.10;99.90;;;;;;5012535;28;20185;-58
2022/05/08 09:23:22;;;;;;;11.88;7.25;;;19.60;99.90;;;;;;5012537;28;20197;-57
2022/05/08 09:26:02;;;;;;;11.85;6.90;;;20.00;99.90;;;;;;5010517;28;20186;-57
2022/05/08 09:28:29;;;;;;;11.88;6.72;;;18.90;99.90;;;;;;5011044;28;20700;-58
2022/05/08 09:31:12;;;;;;;8.23;6.30;;;18.60;99.90;;;;;;5010889;28;20583;-58
2022/05/08 09:33:40;;;;;;;11.68;6.50;;;19.10;99.90;;;;;;5010903;28;20170;-57
2022/05/08 09:36:09;;;;;;;9.90;6.20;;;19.60;99.90;;;;;;5011005;28;20191;-57
2022/05/08 09:38:50;;;;;;;13.88;5.88;;;20.30;99.90;;;;;;5011826;28;20171;-57
2022/05/08 09:41:26;;;;;;;8.73;5.88;;;20.90;99.90;;;;;;5011992;28;20557;-57
2022/05/08 09:43:54;;;;;;;10.23;6.25;;;21.00;99.90;;;;;;5026748;28;20304;-57
2022/05/08 09:46:21;;;;;;;10.27;6.05;;;21.30;99.90;;;;;;5031953;28;20639;-58
2022/05/08 09:48:47;;;;;;;8.15;5.50;;;21.20;99.90;;;;;;5032019;28;20184;-58
2022/05/08 09:51:17;;;;;;;7.30;5.30;;;21.70;99.90;;;;;;5031870;28;20207;-57
2022/05/08 09:53:45;;;;;;;8.02;5.30;;;21.80;99.90;;;;;;5031713;28;20178;-57
2022/05/08 09:56:12;;;;;;;8.80;6.03;;;21.80;99.90;;;;;;5031842;28;20214;-57
2022/05/08 09:58:43;;;;;;;8.80;6.10;;;21.30;99.90;;;;;;5031078;28;20726;-57
2022/05/08 10:01:09;;;;;;;8.15;5.43;;;21.20;99.90;;;;;;5031591;28;20231;-58
2022/05/08 10:03:36;;;;;;;8.30;5.28;;;21.70;99.90;;;;;;5031695;28;20181;-58
2022/05/08 10:06:02;;;;;;;6.03;4.47;;;21.60;99.90;;;;;;5031557;28;20199;-58
2022/05/08 10:08:30;;;;;;;11.95;5.53;;;21.20;99.90;;;;;;5031540;28;20549;-57
2022/05/08 10:13:57;;;;;;;6.85;5.13;;;21.30;99.90;;;;;;5031595;28;20185;-58
2022/05/08 10:17:04;;;;;;;9.48;5.60;;;21.90;99.90;;;;;;5031326;28;20684;-57
2022/05/08 10:19:30;;;;;;;7.82;4.80;;;21.50;99.90;;;;;;5031296;28;20181;-58
2022/05/08 10:21:55;;;;;;;7.30;4.88;;;22.20;99.90;;;;;;5031402;28;20228;-57
2022/05/08 10:24:33;;;;;;;8.10;5.38;;;22.80;99.90;;;;;;5031130;28;20550;-57
2022/05/08 10:27:11;;;;;;;8.48;4.70;;;22.60;99.90;;;;;;5031182;28;20174;-57
2022/05/08 10:29:38;;;;;;;7.30;4.90;;;22.80;99.90;;;;;;5031315;28;20181;-57
2022/05/08 10:32:10;;;;;;;7.95;4.25;;;23.40;99.90;;;;;;5031161;28;20212;-58
2022/05/08 10:34:39;;;;;;;6.53;4.50;;;23.40;99.90;;;;;;5031204;28;20170;-58
2022/05/08 10:37:11;;;;;;;10.77;3.90;;;23.60;99.90;;;;;;5031114;28;20721;-59
2022/05/08 10:39:38;;;;;;;6.00;2.58;;;24.00;99.90;;;;;;5031001;28;20174;-58
2022/05/08 10:42:04;;;;;;;6.03;2.95;;;24.40;99.90;;;;;;5031110;28;20177;-59
2022/05/08 10:44:39;;;;;;;7.03;3.33;;;24.80;99.90;;;;;;5031253;28;20181;-58
2022/05/08 10:47:33;;;;;;;8.13;3.35;;;25.00;99.90;;;;;;5046419;28;20718;-58
2022/05/08 10:50:09;;;;;;;4.97;2.92;;;24.60;99.90;;;;;;5031063;28;20637;-59
2022/05/08 10:52:45;;;;;;;4.93;3.20;;;22.90;99.90;;;;;;5030898;28;20429;-57
2022/05/08 10:55:14;;;;;;;4.22;3.17;;;23.30;99.90;;;;;;5030813;28;20656;-58
2022/05/08 10:57:41;;;;;;;5.32;2.58;;;23.20;99.90;;;;;;5028391;28;20217;-58
2022/05/08 11:00:09;;;;;;;6.20;3.33;;;24.20;99.90;;;;;;5030685;28;20166;-57
2022/05/08 11:02:52;;;;;;;5.15;2.95;;;24.10;99.90;;;;;;5030580;28;20166;-57
2022/05/08 11:05:39;;;;;;;6.40;3.00;;;24.30;99.90;;;;;;5030883;28;20228;-58
2022/05/08 11:08:12;;;;;;;6.93;2.70;;;23.80;99.90;;;;;;5030443;28;20190;-57
2022/05/08 11:10:42;;;;;;;5.05;3.05;;;24.80;99.90;;;;;;5032168;28;20209;-58
2022/05/08 11:13:14;;;;;;;5.00;2.90;;;25.00;99.90;;;;;;5034814;28;20654;-57
2022/05/08 11:15:43;;;;;;;4.97;2.95;;;25.50;99.90;;;;;;5034564;28;20655;-58
2022/05/08 11:18:09;;;;;;;3.25;2.67;;;26.20;99.90;;;;;;5034582;28;20679;-58
2022/05/08 11:21:00;;;;;;;5.00;3.08;;;25.10;99.90;;;;;;5034524;28;20197;-57
2022/05/08 11:23:41;;;;;;;4.63;3.10;;;23.90;99.90;;;;;;5034581;28;20185;-57
2022/05/08 11:26:11;;;;;;;5.45;2.17;;;24.90;99.90;;;;;;5034744;28;20174;-59
2022/05/08 11:28:50;;;;;;;4.60;2.28;;;26.50;99.90;;;;;;5034413;28;20182;-59
2022/05/08 11:31:19;;;;;;;3.35;2.10;;;27.40;99.90;;;;;;5034337;28;20170;-56
2022/05/08 11:36:35;;;;;;;5.30;2.80;;;27.40;99.90;;;;;;5034169;28;20363;-57
2022/05/08 11:39:09;;;;;;;5.10;2.30;;;24.90;99.90;;;;;;5034063;28;20227;-58
2022/05/08 11:41:47;;;;;;;5.90;2.35;;;25.90;99.90;;;;;;5034212;28;20173;-58
2022/05/08 11:44:15;;;;;;;3.72;2.08;;;26.80;99.90;;;;;;5033952;28;20729;-59
2022/05/08 11:46:45;;;;;;;2.33;1.70;;;27.10;99.90;;;;;;5034104;28;20675;-59
2022/05/08 11:49:24;;;;;;;3.50;2.30;;;26.20;99.90;;;;;;5034063;28;20208;-58
2022/05/08 11:51:59;;;;;;;3.63;2.00;;;24.60;99.90;;;;;;5033981;28;20177;-58
2022/05/08 11:54:32;;;;;;;2.90;2.03;;;24.30;99.90;;;;;;5033994;28;20177;-59
2022/05/08 11:57:21;;;;;;;2.67;1.50;;;25.40;99.90;;;;;;5032448;28;20217;-60
2022/05/08 11:59:48;;;;;;;1.73;1.40;;;26.50;99.90;;;;;;5033844;28;20205;-59
2022/05/08 12:02:14;;;;;;;5.13;1.40;;;27.40;99.90;;;;;;5033711;28;20206;-58
2022/05/08 12:04:42;;;;;;;2.78;1.85;;;27.80;99.90;;;;;;5034294;28;20178;-58
2022/05/08 12:07:14;;;;;;;5.25;1.95;;;27.60;99.90;;;;;;5033498;28;20170;-58
2022/05/08 12:09:52;;;;;;;5.35;2.00;;;26.80;99.90;;;;;;5032956;28;20197;-58
2022/05/08 12:12:29;;;;;;;3.88;2.00;;;25.10;99.90;;;;;;5032226;28;20166;-59
2022/05/08 12:15:01;;;;;;;3.58;2.00;;;25.40;99.90;;;;;;5031523;28;20195;-58
2022/05/08 12:17:27;;;;;;;4.70;2.05;;;25.70;99.90;;;;;;5029696;28;20198;-58
2022/05/08 12:19:57;;;;;;;6.13;2.83;;;27.00;99.90;;;;;;5031980;28;20636;-59
2022/05/08 12:22:24;;;;;;;3.72;1.90;;;26.60;99.90;;;;;;5030816;28;20701;-58
2022/05/08 12:24:55;;;;;;;3.88;1.63;;;26.80;99.90;;;;;;5031433;28;20245;-59
2022/05/08 12:27:21;;;;;;;2.83;1.42;;;25.70;99.90;;;;;;5032617;28;20165;-59
2022/05/08 12:29:47;;;;;;;4.30;1.60;;;25.10;99.90;;;;;;5021678;28;20248;-58
2022/05/08 12:32:17;;;;;;;2.58;1.33;;;24.90;99.90;;;;;;5011696;28;20183;-58
2022/05/08 12:34:44;;;;;;;3.38;1.17;;;25.80;99.90;;;;;;5014806;28;20185;-58
2022/05/08 12:37:12;;;;;;;4.18;1.25;;;25.90;99.90;;;;;;5032366;28;20308;-58
2022/05/08 12:39:39;;;;;;;3.53;1.60;;;24.60;99.90;;;;;;5033134;28;20166;-58
2022/05/08 12:42:06;;;;;;;7.78;1.38;;;25.40;99.90;;;;;;5032971;28;20182;-58
2022/05/08 12:44:33;;;;;;;3.55;1.30;;;25.90;99.90;;;;;;5032982;28;20174;-59
2022/05/08 12:47:00;;;;;;;5.50;1.48;;;27.10;99.90;;;;;;5024181;28;20189;-58
2022/05/08 12:49:26;;;;;;;4.28;1.45;;;25.50;99.90;;;;;;5011827;28;20166;-58
2022/05/08 12:51:52;;;;;;;3.97;1.42;;;25.10;99.90;;;;;;5012269;28;20182;-58
2022/05/08 12:54:18;;;;;;;3.35;1.20;;;25.50;99.90;;;;;;5013986;28;20179;-58
2022/05/08 12:56:44;;;;;;;6.32;1.58;;;26.10;99.90;;;;;;5032302;28;20257;-58
2022/05/08 13:01:55;;;;;;;3.90;1.35;;;26.70;99.90;;;;;;5029584;28;20201;-58
2022/05/08 13:04:21;;;;;;;4.25;1.48;;;26.50;99.90;;;;;;5030577;28;20197;-58
2022/05/08 13:06:47;;;;;;;3.83;1.20;;;25.40;99.90;;;;;;5013506;28;20209;-59